sensor_id;sensor_type;location;lat;lon;timestamp;P1;durP1;ratioP1;P2;durP2;ratioP2
68074;SDS011;54864;52.002;5.468;2023-08-06T00:00:56;7.22;;;5.07;;
68074;SDS011;54864;52.002;5.468;2023-08-06T00:01:58;9.30;;;5.45;;
68074;SDS011;54864;52.002;5.468;2023-08-06T00:02:58;6.10;;;4.73;;
68074;SDS011;54864;52.002;5.468;2023-08-06T00:04:00;10.55;;;5.55;;
68074;SDS011;54864;52.002;5.468;2023-08-06T00:05:01;8.23;;;5.28;;
68074;SDS011;54864;52.002;5.468;2023-08-06T00:06:05;7.72;;;5.20;;
68074;SDS011;54864;52.002;5.468;2023-08-06T00:07:06;9.05;;;5.30;;
68074;SDS011;54864;52.002;5.468;2023-08-06T00:08:08;7.60;;;5.90;;
68074;SDS011;54864;52.002;5.468;2023-08-06T00:09:09;10.13;;;5.70;;
68074;SDS011;54864;52.002;5.468;2023-08-06T00:10:11;8.00;;;5.30;;
68074;SDS011;54864;52.002;5.468;2023-08-06T00:11:11;6.80;;;5.20;;
68074;SDS011;54864;52.002;5.468;2023-08-06T00:12:15;7.03;;;5.00;;
68074;SDS011;54864;52.002;5.468;2023-08-06T00:13:19;7.10;;;5.13;;
68074;SDS011;54864;52.002;5.468;2023-08-06T00:14:20;9.85;;;5.30;;
68074;SDS011;54864;52.002;5.468;2023-08-06T00:15:21;6.53;;;5.17;;
68074;SDS011;54864;52.002;5.468;2023-08-06T00:16:22;9.45;;;5.80;;
68074;SDS011;54864;52.002;5.468;2023-08-06T00:17:24;8.63;;;5.43;;
68074;SDS011;54864;52.002;5.468;2023-08-06T00:18:25;8.18;;;5.57;;
68074;SDS011;54864;52.002;5.468;2023-08-06T00:19:26;6.20;;;5.18;;
68074;SDS011;54864;52.002;5.468;2023-08-06T00:20:27;11.30;;;4.83;;
68074;SDS011;54864;52.002;5.468;2023-08-06T00:21:29;6.45;;;4.45;;
68074;SDS011;54864;52.002;5.468;2023-08-06T00:22:30;8.85;;;5.45;;
68074;SDS011;54864;52.002;5.468;2023-08-06T00:23:32;7.45;;;4.90;;
68074;SDS011;54864;52.002;5.468;2023-08-06T00:24:36;5.63;;;4.97;;
68074;SDS011;54864;52.002;5.468;2023-08-06T00:25:37;7.15;;;4.88;;
68074;SDS011;54864;52.002;5.468;2023-08-06T00:26:38;7.82;;;5.05;;
68074;SDS011;54864;52.002;5.468;2023-08-06T00:27:44;7.15;;;4.80;;
68074;SDS011;54864;52.002;5.468;2023-08-06T00:28:45;6.60;;;4.53;;
68074;SDS011;54864;52.002;5.468;2023-08-06T00:29:45;6.95;;;4.95;;
68074;SDS011;54864;52.002;5.468;2023-08-06T00:30:51;7.80;;;5.10;;
68074;SDS011;54864;52.002;5.468;2023-08-06T00:31:53;7.63;;;4.57;;
68074;SDS011;54864;52.002;5.468;2023-08-06T00:32:54;5.70;;;4.97;;
68074;SDS011;54864;52.002;5.468;2023-08-06T00:33:55;6.95;;;4.72;;
68074;SDS011;54864;52.002;5.468;2023-08-06T00:35:00;7.88;;;4.45;;
68074;SDS011;54864;52.002;5.468;2023-08-06T00:36:00;9.02;;;4.93;;
68074;SDS011;54864;52.002;5.468;2023-08-06T00:37:02;6.80;;;4.60;;
68074;SDS011;54864;52.002;5.468;2023-08-06T00:38:05;7.78;;;4.80;;
68074;SDS011;54864;52.002;5.468;2023-08-06T00:39:06;8.07;;;4.47;;
68074;SDS011;54864;52.002;5.468;2023-08-06T00:40:07;6.90;;;4.53;;
68074;SDS011;54864;52.002;5.468;2023-08-06T00:41:08;6.38;;;5.20;;
68074;SDS011;54864;52.002;5.468;2023-08-06T00:42:10;7.53;;;5.00;;
68074;SDS011;54864;52.002;5.468;2023-08-06T00:43:15;5.10;;;4.55;;
68074;SDS011;54864;52.002;5.468;2023-08-06T00:44:17;7.32;;;4.78;;
68074;SDS011;54864;52.002;5.468;2023-08-06T00:45:18;5.50;;;5.00;;
68074;SDS011;54864;52.002;5.468;2023-08-06T00:46:18;6.47;;;4.63;;
68074;SDS011;54864;52.002;5.468;2023-08-06T00:47:20;7.55;;;5.00;;
68074;SDS011;54864;52.002;5.468;2023-08-06T00:48:21;7.53;;;4.97;;
68074;SDS011;54864;52.002;5.468;2023-08-06T00:49:23;8.13;;;5.55;;
68074;SDS011;54864;52.002;5.468;2023-08-06T00:50:27;5.63;;;4.75;;
68074;SDS011;54864;52.002;5.468;2023-08-06T00:51:29;8.88;;;5.47;;
68074;SDS011;54864;52.002;5.468;2023-08-06T00:52:33;8.75;;;5.70;;
68074;SDS011;54864;52.002;5.468;2023-08-06T00:53:38;10.73;;;5.38;;
68074;SDS011;54864;52.002;5.468;2023-08-06T00:54:40;5.65;;;4.75;;
68074;SDS011;54864;52.002;5.468;2023-08-06T00:55:41;7.18;;;4.78;;
68074;SDS011;54864;52.002;5.468;2023-08-06T00:56:45;8.68;;;5.07;;
68074;SDS011;54864;52.002;5.468;2023-08-06T00:57:47;7.72;;;5.18;;
68074;SDS011;54864;52.002;5.468;2023-08-06T00:58:51;5.20;;;4.70;;
68074;SDS011;54864;52.002;5.468;2023-08-06T00:59:53;9.70;;;5.20;;
68074;SDS011;54864;52.002;5.468;2023-08-06T01:00:55;8.63;;;5.35;;
68074;SDS011;54864;52.002;5.468;2023-08-06T01:01:56;8.38;;;5.18;;
68074;SDS011;54864;52.002;5.468;2023-08-06T01:02:57;9.30;;;5.55;;
68074;SDS011;54864;52.002;5.468;2023-08-06T01:03:58;11.63;;;5.43;;
68074;SDS011;54864;52.002;5.468;2023-08-06T01:05:03;6.22;;;5.63;;
68074;SDS011;54864;52.002;5.468;2023-08-06T01:06:04;9.07;;;5.80;;
68074;SDS011;54864;52.002;5.468;2023-08-06T01:07:16;7.50;;;5.28;;
68074;SDS011;54864;52.002;5.468;2023-08-06T01:08:28;7.20;;;5.63;;
68074;SDS011;54864;52.002;5.468;2023-08-06T01:09:41;7.57;;;5.15;;
68074;SDS011;54864;52.002;5.468;2023-08-06T01:10:49;6.15;;;4.90;;
68074;SDS011;54864;52.002;5.468;2023-08-06T01:11:59;9.00;;;5.57;;
68074;SDS011;54864;52.002;5.468;2023-08-06T01:13:08;8.25;;;5.45;;
68074;SDS011;54864;52.002;5.468;2023-08-06T01:14:21;7.07;;;5.13;;
68074;SDS011;54864;52.002;5.468;2023-08-06T01:15:29;6.18;;;5.18;;
68074;SDS011;54864;52.002;5.468;2023-08-06T01:16:34;7.60;;;5.18;;
68074;SDS011;54864;52.002;5.468;2023-08-06T01:17:37;9.48;;;5.20;;
68074;SDS011;54864;52.002;5.468;2023-08-06T01:18:39;6.30;;;4.75;;
68074;SDS011;54864;52.002;5.468;2023-08-06T01:19:41;7.55;;;5.35;;
68074;SDS011;54864;52.002;5.468;2023-08-06T01:20:45;6.03;;;5.27;;
68074;SDS011;54864;52.002;5.468;2023-08-06T01:21:45;8.32;;;4.93;;
68074;SDS011;54864;52.002;5.468;2023-08-06T01:22:47;9.57;;;4.75;;
68074;SDS011;54864;52.002;5.468;2023-08-06T01:23:48;5.65;;;4.85;;
68074;SDS011;54864;52.002;5.468;2023-08-06T01:24:52;8.05;;;5.30;;
68074;SDS011;54864;52.002;5.468;2023-08-06T01:25:56;7.85;;;5.03;;
68074;SDS011;54864;52.002;5.468;2023-08-06T01:27:06;7.03;;;5.07;;
68074;SDS011;54864;52.002;5.468;2023-08-06T01:28:15;6.10;;;5.35;;
68074;SDS011;54864;52.002;5.468;2023-08-06T01:29:28;6.68;;;5.13;;
68074;SDS011;54864;52.002;5.468;2023-08-06T01:30:34;8.50;;;5.43;;
68074;SDS011;54864;52.002;5.468;2023-08-06T01:31:41;7.57;;;5.45;;
68074;SDS011;54864;52.002;5.468;2023-08-06T01:32:44;7.38;;;5.10;;
68074;SDS011;54864;52.002;5.468;2023-08-06T01:33:50;8.10;;;5.53;;
68074;SDS011;54864;52.002;5.468;2023-08-06T01:34:53;8.27;;;5.32;;
68074;SDS011;54864;52.002;5.468;2023-08-06T01:36:03;7.70;;;4.95;;
68074;SDS011;54864;52.002;5.468;2023-08-06T01:37:08;6.85;;;5.60;;
68074;SDS011;54864;52.002;5.468;2023-08-06T01:38:10;7.03;;;5.00;;
68074;SDS011;54864;52.002;5.468;2023-08-06T01:39:11;5.30;;;4.80;;
68074;SDS011;54864;52.002;5.468;2023-08-06T01:40:13;6.43;;;5.65;;
68074;SDS011;54864;52.002;5.468;2023-08-06T01:41:14;5.90;;;5.30;;
68074;SDS011;54864;52.002;5.468;2023-08-06T01:42:15;8.55;;;5.63;;
68074;SDS011;54864;52.002;5.468;2023-08-06T01:43:19;8.80;;;5.60;;
68074;SDS011;54864;52.002;5.468;2023-08-06T01:44:21;7.68;;;6.07;;
68074;SDS011;54864;52.002;5.468;2023-08-06T01:45:22;7.88;;;5.97;;
68074;SDS011;54864;52.002;5.468;2023-08-06T01:46:23;6.95;;;6.25;;
68074;SDS011;54864;52.002;5.468;2023-08-06T01:47:24;7.47;;;6.18;;
68074;SDS011;54864;52.002;5.468;2023-08-06T01:48:27;8.77;;;6.60;;
68074;SDS011;54864;52.002;5.468;2023-08-06T01:49:28;7.28;;;6.55;;
68074;SDS011;54864;52.002;5.468;2023-08-06T01:50:30;9.05;;;6.15;;
68074;SDS011;54864;52.002;5.468;2023-08-06T01:51:32;10.43;;;6.27;;
68074;SDS011;54864;52.002;5.468;2023-08-06T01:52:34;7.67;;;6.90;;
68074;SDS011;54864;52.002;5.468;2023-08-06T01:53:37;7.45;;;6.43;;
68074;SDS011;54864;52.002;5.468;2023-08-06T01:54:41;9.00;;;6.28;;
68074;SDS011;54864;52.002;5.468;2023-08-06T01:55:42;7.67;;;6.33;;
68074;SDS011;54864;52.002;5.468;2023-08-06T01:56:48;7.20;;;6.32;;
68074;SDS011;54864;52.002;5.468;2023-08-06T01:57:49;8.70;;;6.67;;
68074;SDS011;54864;52.002;5.468;2023-08-06T01:58:50;9.38;;;6.60;;
68074;SDS011;54864;52.002;5.468;2023-08-06T01:59:51;8.68;;;6.35;;
68074;SDS011;54864;52.002;5.468;2023-08-06T02:00:53;7.07;;;6.38;;
68074;SDS011;54864;52.002;5.468;2023-08-06T02:01:54;12.20;;;7.18;;
68074;SDS011;54864;52.002;5.468;2023-08-06T02:02:56;10.80;;;6.60;;
68074;SDS011;54864;52.002;5.468;2023-08-06T02:03:59;9.98;;;6.78;;
68074;SDS011;54864;52.002;5.468;2023-08-06T02:05:00;9.20;;;7.30;;
68074;SDS011;54864;52.002;5.468;2023-08-06T02:06:01;8.30;;;6.97;;
68074;SDS011;54864;52.002;5.468;2023-08-06T02:07:06;8.50;;;7.03;;
68074;SDS011;54864;52.002;5.468;2023-08-06T02:08:07;9.13;;;7.20;;
68074;SDS011;54864;52.002;5.468;2023-08-06T02:09:08;8.35;;;7.05;;
68074;SDS011;54864;52.002;5.468;2023-08-06T02:10:12;10.48;;;7.63;;
68074;SDS011;54864;52.002;5.468;2023-08-06T02:11:14;10.50;;;7.10;;
68074;SDS011;54864;52.002;5.468;2023-08-06T02:12:14;9.47;;;7.83;;
68074;SDS011;54864;52.002;5.468;2023-08-06T02:13:16;9.95;;;8.13;;
68074;SDS011;54864;52.002;5.468;2023-08-06T02:14:17;8.30;;;7.43;;
68074;SDS011;54864;52.002;5.468;2023-08-06T02:15:19;13.75;;;8.43;;
68074;SDS011;54864;52.002;5.468;2023-08-06T02:16:19;10.55;;;7.90;;
68074;SDS011;54864;52.002;5.468;2023-08-06T02:17:21;11.43;;;8.05;;
68074;SDS011;54864;52.002;5.468;2023-08-06T02:18:22;9.23;;;7.70;;
68074;SDS011;54864;52.002;5.468;2023-08-06T02:19:22;9.30;;;8.30;;
68074;SDS011;54864;52.002;5.468;2023-08-06T02:20:24;10.10;;;8.07;;
68074;SDS011;54864;52.002;5.468;2023-08-06T02:21:25;11.07;;;8.67;;
68074;SDS011;54864;52.002;5.468;2023-08-06T02:22:28;11.30;;;9.75;;
68074;SDS011;54864;52.002;5.468;2023-08-06T02:23:29;9.85;;;8.38;;
68074;SDS011;54864;52.002;5.468;2023-08-06T02:24:30;11.82;;;8.93;;
68074;SDS011;54864;52.002;5.468;2023-08-06T02:25:31;11.17;;;8.70;;
68074;SDS011;54864;52.002;5.468;2023-08-06T02:26:33;13.00;;;8.75;;
68074;SDS011;54864;52.002;5.468;2023-08-06T02:27:33;11.57;;;9.13;;
68074;SDS011;54864;52.002;5.468;2023-08-06T02:28:35;9.50;;;8.38;;
68074;SDS011;54864;52.002;5.468;2023-08-06T02:29:36;11.48;;;8.90;;
68074;SDS011;54864;52.002;5.468;2023-08-06T02:30:37;11.32;;;9.25;;
68074;SDS011;54864;52.002;5.468;2023-08-06T02:31:38;12.10;;;9.30;;
68074;SDS011;54864;52.002;5.468;2023-08-06T02:32:40;11.90;;;9.63;;
68074;SDS011;54864;52.002;5.468;2023-08-06T02:33:41;10.88;;;9.48;;
68074;SDS011;54864;52.002;5.468;2023-08-06T02:34:42;12.38;;;9.43;;
68074;SDS011;54864;52.002;5.468;2023-08-06T02:35:43;13.18;;;9.82;;
68074;SDS011;54864;52.002;5.468;2023-08-06T02:36:44;12.23;;;10.15;;
68074;SDS011;54864;52.002;5.468;2023-08-06T02:37:47;14.00;;;11.00;;
68074;SDS011;54864;52.002;5.468;2023-08-06T02:38:48;12.68;;;9.95;;
68074;SDS011;54864;52.002;5.468;2023-08-06T02:39:49;12.23;;;11.00;;
68074;SDS011;54864;52.002;5.468;2023-08-06T02:40:50;11.52;;;10.32;;
68074;SDS011;54864;52.002;5.468;2023-08-06T02:41:51;15.13;;;10.97;;
68074;SDS011;54864;52.002;5.468;2023-08-06T02:42:56;12.50;;;10.32;;
68074;SDS011;54864;52.002;5.468;2023-08-06T02:43:56;12.75;;;10.73;;
68074;SDS011;54864;52.002;5.468;2023-08-06T02:44:58;15.73;;;11.77;;
68074;SDS011;54864;52.002;5.468;2023-08-06T02:45:59;15.55;;;11.25;;
68074;SDS011;54864;52.002;5.468;2023-08-06T02:47:01;12.30;;;11.00;;
68074;SDS011;54864;52.002;5.468;2023-08-06T02:48:02;15.27;;;11.70;;
68074;SDS011;54864;52.002;5.468;2023-08-06T02:49:04;14.90;;;12.18;;
68074;SDS011;54864;52.002;5.468;2023-08-06T02:50:06;13.52;;;11.35;;
68074;SDS011;54864;52.002;5.468;2023-08-06T02:51:08;14.45;;;11.15;;
68074;SDS011;54864;52.002;5.468;2023-08-06T02:52:09;19.33;;;11.67;;
68074;SDS011;54864;52.002;5.468;2023-08-06T02:53:12;15.00;;;11.45;;
68074;SDS011;54864;52.002;5.468;2023-08-06T02:54:13;14.05;;;11.60;;
68074;SDS011;54864;52.002;5.468;2023-08-06T02:55:21;16.45;;;12.45;;
68074;SDS011;54864;52.002;5.468;2023-08-06T02:56:22;15.02;;;12.20;;
68074;SDS011;54864;52.002;5.468;2023-08-06T02:57:24;14.25;;;12.35;;
68074;SDS011;54864;52.002;5.468;2023-08-06T02:58:24;14.67;;;12.37;;
68074;SDS011;54864;52.002;5.468;2023-08-06T02:59:25;16.13;;;12.75;;
68074;SDS011;54864;52.002;5.468;2023-08-06T03:00:27;16.38;;;12.98;;
68074;SDS011;54864;52.002;5.468;2023-08-06T03:01:28;14.52;;;12.77;;
68074;SDS011;54864;52.002;5.468;2023-08-06T03:02:29;15.68;;;12.48;;
68074;SDS011;54864;52.002;5.468;2023-08-06T03:03:31;16.85;;;12.18;;
68074;SDS011;54864;52.002;5.468;2023-08-06T03:04:32;14.52;;;12.93;;
68074;SDS011;54864;52.002;5.468;2023-08-06T03:05:33;17.42;;;12.80;;
68074;SDS011;54864;52.002;5.468;2023-08-06T03:06:34;16.80;;;13.25;;
68074;SDS011;54864;52.002;5.468;2023-08-06T03:07:36;15.10;;;13.10;;
68074;SDS011;54864;52.002;5.468;2023-08-06T03:08:39;16.35;;;12.63;;
68074;SDS011;54864;52.002;5.468;2023-08-06T03:09:41;17.25;;;13.55;;
68074;SDS011;54864;52.002;5.468;2023-08-06T03:10:42;16.40;;;13.38;;
68074;SDS011;54864;52.002;5.468;2023-08-06T03:11:43;15.43;;;12.75;;
68074;SDS011;54864;52.002;5.468;2023-08-06T03:12:44;15.30;;;12.80;;
68074;SDS011;54864;52.002;5.468;2023-08-06T03:13:46;18.48;;;13.10;;
68074;SDS011;54864;52.002;5.468;2023-08-06T03:14:47;14.30;;;12.50;;
68074;SDS011;54864;52.002;5.468;2023-08-06T03:15:52;16.85;;;13.15;;
68074;SDS011;54864;52.002;5.468;2023-08-06T03:16:54;15.88;;;12.57;;
68074;SDS011;54864;52.002;5.468;2023-08-06T03:17:55;14.70;;;12.70;;
68074;SDS011;54864;52.002;5.468;2023-08-06T03:18:56;14.60;;;12.43;;
68074;SDS011;54864;52.002;5.468;2023-08-06T03:20:00;14.43;;;12.73;;
68074;SDS011;54864;52.002;5.468;2023-08-06T03:21:01;13.90;;;12.43;;
68074;SDS011;54864;52.002;5.468;2023-08-06T03:22:03;14.52;;;13.02;;
68074;SDS011;54864;52.002;5.468;2023-08-06T03:23:04;15.98;;;12.32;;
68074;SDS011;54864;52.002;5.468;2023-08-06T03:24:07;15.98;;;12.65;;
68074;SDS011;54864;52.002;5.468;2023-08-06T03:25:10;16.90;;;12.57;;
68074;SDS011;54864;52.002;5.468;2023-08-06T03:26:15;15.48;;;12.27;;
68074;SDS011;54864;52.002;5.468;2023-08-06T03:27:15;14.60;;;12.40;;
68074;SDS011;54864;52.002;5.468;2023-08-06T03:28:17;15.18;;;12.68;;
68074;SDS011;54864;52.002;5.468;2023-08-06T03:29:18;15.90;;;12.27;;
68074;SDS011;54864;52.002;5.468;2023-08-06T03:30:21;14.27;;;11.83;;
68074;SDS011;54864;52.002;5.468;2023-08-06T03:31:22;14.88;;;12.13;;
68074;SDS011;54864;52.002;5.468;2023-08-06T03:32:23;16.15;;;12.48;;
68074;SDS011;54864;52.002;5.468;2023-08-06T03:33:24;13.60;;;12.17;;
68074;SDS011;54864;52.002;5.468;2023-08-06T03:34:25;13.50;;;12.10;;
68074;SDS011;54864;52.002;5.468;2023-08-06T03:35:26;13.95;;;12.25;;
68074;SDS011;54864;52.002;5.468;2023-08-06T03:36:27;14.13;;;11.67;;
68074;SDS011;54864;52.002;5.468;2023-08-06T03:37:29;13.02;;;11.38;;
68074;SDS011;54864;52.002;5.468;2023-08-06T03:38:35;13.05;;;11.27;;
68074;SDS011;54864;52.002;5.468;2023-08-06T03:39:38;16.63;;;11.75;;
68074;SDS011;54864;52.002;5.468;2023-08-06T03:40:45;12.63;;;11.15;;
68074;SDS011;54864;52.002;5.468;2023-08-06T03:41:47;12.93;;;11.50;;
68074;SDS011;54864;52.002;5.468;2023-08-06T03:42:48;13.27;;;11.68;;
68074;SDS011;54864;52.002;5.468;2023-08-06T03:43:49;14.07;;;11.23;;
68074;SDS011;54864;52.002;5.468;2023-08-06T03:44:50;13.90;;;10.98;;
68074;SDS011;54864;52.002;5.468;2023-08-06T03:45:51;13.68;;;11.45;;
68074;SDS011;54864;52.002;5.468;2023-08-06T03:46:53;14.20;;;11.77;;
68074;SDS011;54864;52.002;5.468;2023-08-06T03:47:54;14.80;;;11.90;;
68074;SDS011;54864;52.002;5.468;2023-08-06T03:48:55;15.82;;;11.13;;
68074;SDS011;54864;52.002;5.468;2023-08-06T03:49:57;12.45;;;11.10;;
68074;SDS011;54864;52.002;5.468;2023-08-06T03:50:58;13.05;;;11.13;;
68074;SDS011;54864;52.002;5.468;2023-08-06T03:52:04;12.80;;;10.65;;
68074;SDS011;54864;52.002;5.468;2023-08-06T03:53:09;13.23;;;10.73;;
68074;SDS011;54864;52.002;5.468;2023-08-06T03:54:10;14.37;;;11.77;;
68074;SDS011;54864;52.002;5.468;2023-08-06T03:55:13;14.13;;;11.13;;
68074;SDS011;54864;52.002;5.468;2023-08-06T03:56:14;14.25;;;11.25;;
68074;SDS011;54864;52.002;5.468;2023-08-06T03:57:15;14.05;;;10.48;;
68074;SDS011;54864;52.002;5.468;2023-08-06T03:58:17;15.55;;;11.25;;
68074;SDS011;54864;52.002;5.468;2023-08-06T03:59:18;13.50;;;11.35;;
68074;SDS011;54864;52.002;5.468;2023-08-06T04:00:19;16.57;;;10.87;;
68074;SDS011;54864;52.002;5.468;2023-08-06T04:01:21;13.98;;;11.20;;
68074;SDS011;54864;52.002;5.468;2023-08-06T04:02:21;12.65;;;10.85;;
68074;SDS011;54864;52.002;5.468;2023-08-06T04:03:23;13.10;;;11.55;;
68074;SDS011;54864;52.002;5.468;2023-08-06T04:04:24;13.98;;;11.55;;
68074;SDS011;54864;52.002;5.468;2023-08-06T04:05:25;13.77;;;11.20;;
68074;SDS011;54864;52.002;5.468;2023-08-06T04:06:26;14.45;;;11.27;;
68074;SDS011;54864;52.002;5.468;2023-08-06T04:07:27;16.73;;;11.13;;
68074;SDS011;54864;52.002;5.468;2023-08-06T04:08:28;12.82;;;10.77;;
68074;SDS011;54864;52.002;5.468;2023-08-06T04:09:29;13.70;;;11.00;;
68074;SDS011;54864;52.002;5.468;2023-08-06T04:10:32;12.60;;;11.20;;
68074;SDS011;54864;52.002;5.468;2023-08-06T04:11:33;13.23;;;11.10;;
68074;SDS011;54864;52.002;5.468;2023-08-06T04:12:35;15.52;;;10.93;;
68074;SDS011;54864;52.002;5.468;2023-08-06T04:13:36;13.35;;;11.02;;
68074;SDS011;54864;52.002;5.468;2023-08-06T04:14:38;13.75;;;11.10;;
68074;SDS011;54864;52.002;5.468;2023-08-06T04:15:39;13.27;;;11.00;;
68074;SDS011;54864;52.002;5.468;2023-08-06T04:16:43;13.98;;;11.40;;
68074;SDS011;54864;52.002;5.468;2023-08-06T04:17:44;14.13;;;10.77;;
68074;SDS011;54864;52.002;5.468;2023-08-06T04:18:46;15.38;;;11.25;;
68074;SDS011;54864;52.002;5.468;2023-08-06T04:19:50;13.15;;;10.15;;
68074;SDS011;54864;52.002;5.468;2023-08-06T04:20:53;13.20;;;11.45;;
68074;SDS011;54864;52.002;5.468;2023-08-06T04:21:58;12.60;;;10.73;;
68074;SDS011;54864;52.002;5.468;2023-08-06T04:23:05;13.50;;;11.27;;
68074;SDS011;54864;52.002;5.468;2023-08-06T04:24:06;15.98;;;11.48;;
68074;SDS011;54864;52.002;5.468;2023-08-06T04:25:08;13.75;;;10.48;;
68074;SDS011;54864;52.002;5.468;2023-08-06T04:26:11;15.27;;;11.10;;
68074;SDS011;54864;52.002;5.468;2023-08-06T04:27:13;14.03;;;11.53;;
68074;SDS011;54864;52.002;5.468;2023-08-06T04:28:14;12.73;;;11.07;;
68074;SDS011;54864;52.002;5.468;2023-08-06T04:29:15;12.93;;;11.38;;
68074;SDS011;54864;52.002;5.468;2023-08-06T04:30:17;15.13;;;11.73;;
68074;SDS011;54864;52.002;5.468;2023-08-06T04:31:20;14.73;;;11.82;;
68074;SDS011;54864;52.002;5.468;2023-08-06T04:32:23;14.10;;;11.80;;
68074;SDS011;54864;52.002;5.468;2023-08-06T04:33:25;15.43;;;11.80;;
68074;SDS011;54864;52.002;5.468;2023-08-06T04:34:26;14.27;;;11.27;;
68074;SDS011;54864;52.002;5.468;2023-08-06T04:35:27;14.23;;;11.40;;
68074;SDS011;54864;52.002;5.468;2023-08-06T04:36:28;16.85;;;12.20;;
68074;SDS011;54864;52.002;5.468;2023-08-06T04:37:29;15.32;;;11.60;;
68074;SDS011;54864;52.002;5.468;2023-08-06T04:38:31;15.55;;;12.77;;
68074;SDS011;54864;52.002;5.468;2023-08-06T04:39:32;14.75;;;12.23;;
68074;SDS011;54864;52.002;5.468;2023-08-06T04:40:34;19.17;;;12.35;;
68074;SDS011;54864;52.002;5.468;2023-08-06T04:41:40;20.45;;;12.38;;
68074;SDS011;54864;52.002;5.468;2023-08-06T04:42:42;19.98;;;12.23;;
68074;SDS011;54864;52.002;5.468;2023-08-06T04:43:42;16.10;;;11.97;;
68074;SDS011;54864;52.002;5.468;2023-08-06T04:44:44;15.55;;;13.13;;
68074;SDS011;54864;52.002;5.468;2023-08-06T04:45:48;19.05;;;13.05;;
68074;SDS011;54864;52.002;5.468;2023-08-06T04:46:50;16.20;;;12.30;;
68074;SDS011;54864;52.002;5.468;2023-08-06T04:47:51;17.20;;;13.13;;
68074;SDS011;54864;52.002;5.468;2023-08-06T04:48:52;15.98;;;12.85;;
68074;SDS011;54864;52.002;5.468;2023-08-06T04:49:54;16.95;;;13.55;;
68074;SDS011;54864;52.002;5.468;2023-08-06T04:51:04;14.93;;;12.90;;
68074;SDS011;54864;52.002;5.468;2023-08-06T04:52:12;16.23;;;13.88;;
68074;SDS011;54864;52.002;5.468;2023-08-06T04:53:13;14.73;;;12.65;;
68074;SDS011;54864;52.002;5.468;2023-08-06T04:54:15;16.98;;;13.57;;
68074;SDS011;54864;52.002;5.468;2023-08-06T04:55:16;16.73;;;13.17;;
68074;SDS011;54864;52.002;5.468;2023-08-06T04:56:17;19.80;;;13.25;;
68074;SDS011;54864;52.002;5.468;2023-08-06T04:57:19;14.45;;;12.93;;
68074;SDS011;54864;52.002;5.468;2023-08-06T04:58:21;16.65;;;13.38;;
68074;SDS011;54864;52.002;5.468;2023-08-06T04:59:22;17.90;;;13.70;;
68074;SDS011;54864;52.002;5.468;2023-08-06T05:00:24;15.10;;;13.50;;
68074;SDS011;54864;52.002;5.468;2023-08-06T05:01:24;18.08;;;13.57;;
68074;SDS011;54864;52.002;5.468;2023-08-06T05:02:26;19.48;;;13.68;;
68074;SDS011;54864;52.002;5.468;2023-08-06T05:03:27;15.02;;;13.57;;
68074;SDS011;54864;52.002;5.468;2023-08-06T05:04:30;16.60;;;14.20;;
68074;SDS011;54864;52.002;5.468;2023-08-06T05:05:34;15.55;;;13.93;;
68074;SDS011;54864;52.002;5.468;2023-08-06T05:06:36;16.17;;;13.75;;
68074;SDS011;54864;52.002;5.468;2023-08-06T05:07:41;17.08;;;14.07;;
68074;SDS011;54864;52.002;5.468;2023-08-06T05:08:42;18.08;;;14.07;;
68074;SDS011;54864;52.002;5.468;2023-08-06T05:09:46;17.02;;;14.80;;
68074;SDS011;54864;52.002;5.468;2023-08-06T05:10:49;15.93;;;14.23;;
68074;SDS011;54864;52.002;5.468;2023-08-06T05:11:51;15.50;;;13.85;;
68074;SDS011;54864;52.002;5.468;2023-08-06T05:12:53;15.60;;;14.00;;
68074;SDS011;54864;52.002;5.468;2023-08-06T05:13:55;15.30;;;12.60;;
68074;SDS011;54864;52.002;5.468;2023-08-06T05:14:56;17.50;;;13.73;;
68074;SDS011;54864;52.002;5.468;2023-08-06T05:16:04;18.05;;;14.32;;
68074;SDS011;54864;52.002;5.468;2023-08-06T05:17:09;15.88;;;13.80;;
68074;SDS011;54864;52.002;5.468;2023-08-06T05:18:15;17.67;;;13.55;;
68074;SDS011;54864;52.002;5.468;2023-08-06T05:19:17;17.50;;;14.02;;
68074;SDS011;54864;52.002;5.468;2023-08-06T05:20:18;16.17;;;13.23;;
68074;SDS011;54864;52.002;5.468;2023-08-06T05:21:23;16.63;;;14.35;;
68074;SDS011;54864;52.002;5.468;2023-08-06T05:22:24;15.33;;;13.40;;
68074;SDS011;54864;52.002;5.468;2023-08-06T05:23:25;15.73;;;14.07;;
68074;SDS011;54864;52.002;5.468;2023-08-06T05:24:29;15.68;;;13.55;;
68074;SDS011;54864;52.002;5.468;2023-08-06T05:25:34;15.98;;;13.32;;
68074;SDS011;54864;52.002;5.468;2023-08-06T05:26:38;15.00;;;13.15;;
68074;SDS011;54864;52.002;5.468;2023-08-06T05:27:40;14.50;;;13.00;;
68074;SDS011;54864;52.002;5.468;2023-08-06T05:28:42;15.98;;;13.02;;
68074;SDS011;54864;52.002;5.468;2023-08-06T05:29:47;15.98;;;13.38;;
68074;SDS011;54864;52.002;5.468;2023-08-06T05:30:48;15.70;;;13.25;;
68074;SDS011;54864;52.002;5.468;2023-08-06T05:31:50;17.60;;;13.20;;
68074;SDS011;54864;52.002;5.468;2023-08-06T05:32:53;16.10;;;13.65;;
68074;SDS011;54864;52.002;5.468;2023-08-06T05:33:55;17.25;;;12.82;;
68074;SDS011;54864;52.002;5.468;2023-08-06T05:34:57;14.25;;;12.68;;
68074;SDS011;54864;52.002;5.468;2023-08-06T05:36:00;15.20;;;13.13;;
68074;SDS011;54864;52.002;5.468;2023-08-06T05:37:02;18.20;;;13.63;;
68074;SDS011;54864;52.002;5.468;2023-08-06T05:38:03;15.75;;;13.82;;
68074;SDS011;54864;52.002;5.468;2023-08-06T05:39:05;14.23;;;12.80;;
68074;SDS011;54864;52.002;5.468;2023-08-06T05:40:06;16.55;;;13.45;;
68074;SDS011;54864;52.002;5.468;2023-08-06T05:41:09;18.83;;;14.30;;
68074;SDS011;54864;52.002;5.468;2023-08-06T05:42:10;23.33;;;14.73;;
68074;SDS011;54864;52.002;5.468;2023-08-06T05:43:11;16.98;;;14.82;;
68074;SDS011;54864;52.002;5.468;2023-08-06T05:44:14;15.23;;;13.73;;
68074;SDS011;54864;52.002;5.468;2023-08-06T05:45:16;17.27;;;14.63;;
68074;SDS011;54864;52.002;5.468;2023-08-06T05:46:18;16.70;;;14.40;;
68074;SDS011;54864;52.002;5.468;2023-08-06T05:47:20;17.30;;;14.77;;
68074;SDS011;54864;52.002;5.468;2023-08-06T05:48:21;17.52;;;14.45;;
68074;SDS011;54864;52.002;5.468;2023-08-06T05:49:24;17.13;;;14.80;;
68074;SDS011;54864;52.002;5.468;2023-08-06T05:50:26;20.60;;;14.90;;
68074;SDS011;54864;52.002;5.468;2023-08-06T05:51:28;20.02;;;15.05;;
68074;SDS011;54864;52.002;5.468;2023-08-06T05:52:29;20.23;;;15.52;;
68074;SDS011;54864;52.002;5.468;2023-08-06T05:53:30;18.63;;;15.23;;
68074;SDS011;54864;52.002;5.468;2023-08-06T05:54:31;18.90;;;15.23;;
68074;SDS011;54864;52.002;5.468;2023-08-06T05:55:33;17.00;;;15.15;;
68074;SDS011;54864;52.002;5.468;2023-08-06T05:56:34;17.13;;;14.10;;
68074;SDS011;54864;52.002;5.468;2023-08-06T05:57:36;20.35;;;15.10;;
68074;SDS011;54864;52.002;5.468;2023-08-06T05:58:42;17.80;;;15.15;;
68074;SDS011;54864;52.002;5.468;2023-08-06T05:59:48;17.73;;;14.85;;
68074;SDS011;54864;52.002;5.468;2023-08-06T06:00:49;17.60;;;15.77;;
68074;SDS011;54864;52.002;5.468;2023-08-06T06:01:50;18.20;;;15.60;;
68074;SDS011;54864;52.002;5.468;2023-08-06T06:02:51;22.45;;;15.50;;
68074;SDS011;54864;52.002;5.468;2023-08-06T06:03:53;17.77;;;14.65;;
68074;SDS011;54864;52.002;5.468;2023-08-06T06:04:54;17.42;;;15.45;;
68074;SDS011;54864;52.002;5.468;2023-08-06T06:05:56;19.50;;;16.17;;
68074;SDS011;54864;52.002;5.468;2023-08-06T06:07:00;17.58;;;15.68;;
68074;SDS011;54864;52.002;5.468;2023-08-06T06:08:02;16.92;;;15.13;;
68074;SDS011;54864;52.002;5.468;2023-08-06T06:09:03;17.58;;;15.27;;